Euskara    
Meteorología y climatología de Navarra
Datos de la estación - Meteo Navarra

Estación de Arangoiti GN

Altitud 1353 m.


Datos desde el 14/01/2021 hasta el 15/01/2021 en horario solar
Los datos son PROVISIONALES

Anterior Página 1 de 1 Siguiente Descargar: Formato para Excel 2000 o superior   Formato csv   Formato para OpenOffice Calc
Fecha Temperatura Humedad relativa Radiación global Insolación Precipitación Vel. viento 10 m Vel. viento 10 m Dir. viento 10 m
°C % W/m² s l/m² m/s km/h °
14/01/2021 0:00 -0.9 100 0.0 0 0.0 6.3 22.8 6
14/01/2021 0:10 -0.8 100 0.0 0 0.0 6.4 22.9 7
14/01/2021 0:20 -1.0 100 0.0 0 0.0 6.4 22.9 8
14/01/2021 0:30 -0.7 100 0.0 0 0.0 6.4 23.0 7
14/01/2021 0:40 -0.9 99 0.0 0 0.0 9.9 35.7 1
14/01/2021 0:50 -0.8 99 0.0 0 0.0 12.0 43.3 359
14/01/2021 1:00 -0.8 99 0.0 0 0.0 10.4 37.4 359
14/01/2021 1:10 -0.9 99 0.0 0 0.0 10.0 36.0 1
14/01/2021 1:20 -1.2 99 0.0 0 0.0 8.9 31.9 1
14/01/2021 1:30 -1.3 99 0.0 0 0.0 9.1 32.7 5
14/01/2021 1:40 -1.3 99 0.0 0 0.0 8.9 31.9 8
14/01/2021 1:50 -1.2 99 0.0 0 0.0 9.1 32.7 11
14/01/2021 2:00 -1.4 99 0.0 0 0.0 9.0 32.5 11
14/01/2021 2:10 -1.4 99 0.0 0 0.0 9.1 32.8 10
14/01/2021 2:20 -1.5 99 0.0 0 0.0 9.0 32.2 9
14/01/2021 2:30 -1.3 99 0.0 0 0.0 9.1 32.8 7
14/01/2021 2:40 -1.6 99 0.0 0 0.0 9.0 32.3 10
14/01/2021 2:50 -1.4 99 0.0 0 0.0 9.3 33.5 10
14/01/2021 3:00 -1.6 99 0.0 0 0.0 9.6 34.6 14
14/01/2021 3:10 -1.4 99 0.0 0 0.0 9.7 35.1 14
14/01/2021 3:20 -1.3 99 0.0 0 0.0 9.6 34.4 12
14/01/2021 3:30 -1.5 99 0.0 0 0.0 9.7 34.8 13
14/01/2021 3:40 -1.4 99 0.0 0 0.0 9.5 34.1 14
14/01/2021 3:50 -1.6 99 0.0 0 0.0 9.3 33.3 13
14/01/2021 4:00 -1.5 99 0.0 0 0.0 9.3 33.4 9
14/01/2021 4:10 -1.6 99 0.0 0 0.0 9.0 32.5 8
14/01/2021 4:20 -1.6 99 0.0 0 0.0 9.1 32.8 8
14/01/2021 4:30 -1.4 99 0.0 0 0.0 9.1 32.9 9
14/01/2021 4:40 -1.7 99 0.0 0 0.0 9.3 33.6 8
14/01/2021 4:50 -1.8 99 0.0 0 0.0 10.3 37.1 7
14/01/2021 5:00 -1.6 99 0.0 0 0.0 10.5 37.7 4
14/01/2021 5:10 -1.4 99 0.0 0 0.0 10.4 37.3 4
14/01/2021 5:20 -1.5 99 0.0 0 0.0 10.5 37.8 3
14/01/2021 5:30 -1.5 99 0.0 0 0.0 11.7 42.2 2
14/01/2021 5:40 -1.5 99 0.0 0 0.0 12.2 44.0 3
14/01/2021 5:50 -1.5 99 0.0 0 0.0 12.0 43.0 3
14/01/2021 6:00 -1.4 99 0.0 0 0.0 12.0 43.2 4
14/01/2021 6:10 -1.4 99 0.0 0 0.0 12.6 45.3 3
14/01/2021 6:20 -1.4 99 0.0 0 0.0 12.8 46.2 6
14/01/2021 6:30 -1.4 99 0.0 0 0.0 12.7 45.9 8
14/01/2021 6:40 -1.6 99 0.0 0 0.0 12.2 43.8 10
14/01/2021 6:50 -1.6 99 0.0 0 0.0 11.9 42.9 7
14/01/2021 7:00 -1.6 99 0.0 0 0.0 12.4 44.6 5
14/01/2021 7:10 -1.4 99 0.0 0 0.0 12.3 44.1 3
14/01/2021 7:20 -1.2 99 0.0 0 0.0 12.1 43.7 3
14/01/2021 7:30 -1.2 99 15.8 0 0.0 11.3 40.8 4
14/01/2021 7:40 -1.2 99 30.4 302 0.0 11.1 40.0 4
14/01/2021 7:50 -1.2 99 56.8 600 0.0 10.5 37.7 3
14/01/2021 8:00 -1.2 99 77.3 600 0.0 10.9 39.3 1
14/01/2021 8:10 -1.1 99 84.0 600 0.0 11.7 42.0 1
14/01/2021 8:20 -1.3 99 62.9 376 0.0 10.4 37.5 1
14/01/2021 8:30 -1.1 99 61.3 228 0.0 9.8 35.2 1
14/01/2021 8:40 -1.1 99 104.2 592 0.0 10.2 36.5 2
14/01/2021 8:50 -0.9 99 134.9 600 0.0 11.7 42.0 1
14/01/2021 9:00 -0.9 99 173.8 600 0.0 10.3 37.2 3
14/01/2021 9:10 -1.0 99 199.6 600 0.0 9.9 35.7 3
14/01/2021 9:20 -0.8 99 226.9 600 0.0 12.8 45.9 4
14/01/2021 9:30 -0.9 98 229.5 600 0.0 13.7 49.2 4
14/01/2021 9:40 -0.8 99 159.6 384 0.0 13.6 49.1 3
14/01/2021 9:50 -0.9 99 181.1 498 0.0 14.6 52.7 3
14/01/2021 10:00 -0.7 99 183.3 416 0.0 14.7 53.0 2
14/01/2021 10:10 -0.5 99 211.4 542 0.0 13.2 47.7 2
14/01/2021 10:20 -0.1 99 215.0 590 0.0 14.4 51.9 2
14/01/2021 10:30 -0.1 99 211.5 414 0.0 14.1 50.8 4
14/01/2021 10:40 -0.1 99 196.4 190 0.1 14.2 50.9 6
14/01/2021 10:50 -0.2 99 221.5 282 0.0 15.1 54.4 3
14/01/2021 11:00 0.0 99 285.8 504 0.1 15.5 55.9 2
14/01/2021 11:10 -0.1 99 355.9 592 0.0 15.4 55.3 7
14/01/2021 11:20 0.0 99 444.5 600 0.1 15.4 55.5 6
14/01/2021 11:30 0.2 99 462.2 594 0.1 15.4 55.3 2
14/01/2021 11:40 0.0 99 400.2 590 0.1 15.4 55.3 3
14/01/2021 11:50 0.2 99 373.9 600 0.1 16.0 57.5 5
14/01/2021 12:00 0.1 99 317.8 504 0.2 14.9 53.7 7
14/01/2021 12:10 0.2 99 293.4 534 0.2 14.6 52.7 2
14/01/2021 12:20 0.2 99 330.8 600 0.2 14.6 52.5 1
14/01/2021 12:30 0.3 99 342.2 600 0.3 15.3 54.9 355
14/01/2021 12:40 0.2 99 327.9 600 0.3 15.0 54.1 353
14/01/2021 12:50 0.3 99 338.5 600 0.3 15.2 54.7 356
14/01/2021 13:00 0.0 99 332.7 600 0.5 15.4 55.6 360
14/01/2021 13:10 0.1 99 274.0 470 0.2 16.4 59.0 357
14/01/2021 13:20 0.1 99 275.8 516 0.2 15.7 56.4 1
14/01/2021 13:30 0.2 99 260.5 446 0.2 14.9 53.6 1
14/01/2021 13:40 0.0 99 328.3 558 0.2 14.4 52.0 356
14/01/2021 13:50 0.3 99 395.2 582 0.2 14.6 52.7 357
14/01/2021 14:00 0.4 99 370.0 598 0.2 16.1 58.0 356
14/01/2021 14:10 0.0 99 384.6 574 0.2 15.3 55.2 360
14/01/2021 14:20 0.0 99 304.3 542 0.2 14.6 52.6 1
14/01/2021 14:30 0.1 99 271.5 600 0.2 14.6 52.6 357
14/01/2021 14:40 0.2 99 232.1 584 0.2 15.2 54.7 356
14/01/2021 14:50 0.4 99 248.3 570 0.1 16.3 58.7 356
14/01/2021 15:00 0.2 99 260.5 520 0.2 15.3 55.1 3
14/01/2021 15:10 0.2 99 265.4 590 0.2 15.6 56.1 2
14/01/2021 15:20 0.5 99 207.0 576 0.1 15.7 56.6 1
14/01/2021 15:30 0.6 100 125.6 360 0.2 16.2 58.3 357
14/01/2021 15:40 0.3 99 102.6 232 0.1 16.4 59.1 0
14/01/2021 15:50 0.4 100 92.6 260 0.2 17.5 62.8 3
14/01/2021 16:00 1.1 100 82.6 400 0.1 19.1 68.8 13
14/01/2021 16:10 0.8 99 89.0 552 0.2 18.6 66.9 13
14/01/2021 16:20 1.0 100 74.0 546 0.2 18.4 66.3 8
14/01/2021 16:30 0.7 100 48.5 582 0.2 17.1 61.5 6
14/01/2021 16:40 0.8 100 26.4 116 0.2 17.2 61.9 3
14/01/2021 16:50 0.7 99 17.5 0 0.2 16.7 59.9 1
14/01/2021 17:00 0.9 100 5.8 0 0.1 17.4 62.7 2
14/01/2021 17:10 0.9 100 0.0 0 0.2 18.2 65.6 2
14/01/2021 17:20 1.0 100 0.0 0 0.1 18.6 66.8 5
14/01/2021 17:30 1.0 100 0.0 0 0.2 17.7 63.7 5
14/01/2021 17:40 0.8 100 0.0 0 0.1 17.3 62.1 4
14/01/2021 17:50 1.1 100 0.0 0 0.2 17.1 61.6 6
14/01/2021 18:00 1.2 100 0.0 0 0.1 16.8 60.6 5
14/01/2021 18:10 1.2 100 0.0 0 0.1 16.4 58.9 5
14/01/2021 18:20 1.7 100 0.0 0 0.2 17.3 62.1 6
14/01/2021 18:30 1.2 100 0.0 0 0.2 18.9 68.1 5
14/01/2021 18:40 1.2 100 0.0 0 0.2 20.4 73.5 6
14/01/2021 18:50 1.2 100 0.0 0 0.2 20.5 73.8 6
14/01/2021 19:00 1.3 100 0.0 0 0.1 20.3 73.0 6
14/01/2021 19:10 1.2 100 0.0 0 0.1 20.7 74.4 6
14/01/2021 19:20 1.2 100 0.0 0 0.2 19.7 71.0 5
14/01/2021 19:30 1.5 100 0.0 0 0.1 20.0 71.9 6
14/01/2021 19:40 1.4 100 0.0 0 0.1 20.7 74.4 4
14/01/2021 19:50 1.5 100 0.0 0 0.1 21.6 77.8 7
14/01/2021 20:00 1.3 100 0.0 0 0.1 21.3 76.6 7
14/01/2021 20:10 1.2 100 0.0 0 0.0 21.5 77.3 8
14/01/2021 20:20 1.6 100 0.0 0 0.0 22.1 79.6 5
14/01/2021 20:30 1.5 100 0.0 0 0.1 21.7 77.9 5
14/01/2021 20:40 1.2 100 0.0 0 0.0 20.6 74.2 7
14/01/2021 20:50 1.2 100 0.0 0 0.0 21.3 76.5 7
14/01/2021 21:00 1.1 100 0.0 0 0.0 21.3 76.6 7
14/01/2021 21:10 1.2 100 0.0 0 0.0 20.9 75.3 7
14/01/2021 21:20 1.0 100 0.0 0 0.0 19.9 71.6 10
14/01/2021 21:30 0.9 100 0.0 0 0.0 18.3 65.9 10
14/01/2021 21:40 0.9 100 0.0 0 0.0 17.7 63.7 7
14/01/2021 21:50 1.0 100 0.0 0 0.0 19.1 68.7 3
14/01/2021 22:00 0.8 100 0.0 0 0.0 19.7 70.8 6
14/01/2021 22:10 0.8 100 0.0 0 0.0 20.4 73.6 8
14/01/2021 22:20 0.5 100 0.0 0 0.0 20.7 74.4 7
14/01/2021 22:30 0.5 100 0.0 0 0.0 19.1 68.8 7
14/01/2021 22:40 0.4 100 0.0 0 0.0 17.0 61.2 9
14/01/2021 22:50 0.2 100 0.0 0 0.0 18.5 66.7 4
14/01/2021 23:00 -0.1 100 0.0 0 0.0 18.4 66.1 8
14/01/2021 23:10 0.0 100 0.0 0 0.0 18.4 66.3 4
14/01/2021 23:20 -0.2 100 0.0 0 0.0 19.4 69.8 3
14/01/2021 23:30 -0.2 100 0.0 0 0.0 19.0 68.5 3
14/01/2021 23:40 -0.4 100 0.0 0 0.0 18.2 65.6 2
14/01/2021 23:50 -0.4 99 0.0 0 0.0 16.7 60.1 1
Anterior Página 1 de 1 Siguiente
Los datos de precipitación registrados en estaciones que están en cumbres son inferiores a lo real, como consecuencia del efecto del viento y de la nieve.


NOTA: Tipo de datos según el color:
   - Valores diarios o 10 minutos correctos
   - Valores diarios calculados a partir de un número de datos 10 minutos menor que 144 y mayor que 120, o de un número de datos semihorarios menor que 48 y mayor que 40 (caso de las estaciones de INTIA Y Ministerio)
   - Valores diez minutos estimados


Contacto        Enlaces        Aviso legal